sensor_id;sensor_type;location;lat;lon;timestamp;temperature;humidity
74488;DHT22;63019;51.080;13.642;2022-10-23T00:00:23;12.00;97.10
74488;DHT22;63019;51.080;13.642;2022-10-23T00:01:31;12.10;97.20
74488;DHT22;63019;51.080;13.642;2022-10-23T00:02:33;12.10;97.20
74488;DHT22;63019;51.080;13.642;2022-10-23T00:03:34;12.10;97.00
74488;DHT22;63019;51.080;13.642;2022-10-23T00:04:36;12.00;97.00
74488;DHT22;63019;51.080;13.642;2022-10-23T00:05:38;12.10;96.90
74488;DHT22;63019;51.080;13.642;2022-10-23T00:06:42;12.00;96.80
74488;DHT22;63019;51.080;13.642;2022-10-23T00:07:44;12.00;96.70
74488;DHT22;63019;51.080;13.642;2022-10-23T00:08:46;12.00;96.70
74488;DHT22;63019;51.080;13.642;2022-10-23T00:09:48;11.90;96.70
74488;DHT22;63019;51.080;13.642;2022-10-23T00:10:50;11.80;96.70
74488;DHT22;63019;51.080;13.642;2022-10-23T00:11:52;11.80;96.90
74488;DHT22;63019;51.080;13.642;2022-10-23T00:12:53;11.80;96.90
74488;DHT22;63019;51.080;13.642;2022-10-23T00:13:58;11.80;97.00
74488;DHT22;63019;51.080;13.642;2022-10-23T00:15:00;11.70;97.20
74488;DHT22;63019;51.080;13.642;2022-10-23T00:16:02;11.70;97.20
74488;DHT22;63019;51.080;13.642;2022-10-23T00:17:03;11.70;97.20
74488;DHT22;63019;51.080;13.642;2022-10-23T00:18:05;11.80;97.20
74488;DHT22;63019;51.080;13.642;2022-10-23T00:19:07;11.80;97.40
74488;DHT22;63019;51.080;13.642;2022-10-23T00:20:09;11.80;97.50
74488;DHT22;63019;51.080;13.642;2022-10-23T00:21:13;11.80;97.50
74488;DHT22;63019;51.080;13.642;2022-10-23T00:22:15;11.80;97.30
74488;DHT22;63019;51.080;13.642;2022-10-23T00:23:17;11.80;97.30
74488;DHT22;63019;51.080;13.642;2022-10-23T00:24:19;11.80;97.40
74488;DHT22;63019;51.080;13.642;2022-10-23T00:25:20;11.80;97.30
74488;DHT22;63019;51.080;13.642;2022-10-23T00:26:22;11.80;97.30
74488;DHT22;63019;51.080;13.642;2022-10-23T00:27:24;11.80;97.40
74488;DHT22;63019;51.080;13.642;2022-10-23T00:28:26;11.80;97.50
74488;DHT22;63019;51.080;13.642;2022-10-23T00:29:27;11.80;97.40
74488;DHT22;63019;51.080;13.642;2022-10-23T00:30:29;11.80;97.40
74488;DHT22;63019;51.080;13.642;2022-10-23T00:31:31;11.80;97.50
74488;DHT22;63019;51.080;13.642;2022-10-23T00:32:33;11.80;97.50
74488;DHT22;63019;51.080;13.642;2022-10-23T00:33:35;11.80;97.50
74488;DHT22;63019;51.080;13.642;2022-10-23T00:34:37;11.80;97.50
74488;DHT22;63019;51.080;13.642;2022-10-23T00:35:39;11.80;97.30
74488;DHT22;63019;51.080;13.642;2022-10-23T00:36:41;11.80;97.40
74488;DHT22;63019;51.080;13.642;2022-10-23T00:37:43;11.80;97.50
74488;DHT22;63019;51.080;13.642;2022-10-23T00:38:45;11.80;97.50
74488;DHT22;63019;51.080;13.642;2022-10-23T00:39:47;11.80;97.40
74488;DHT22;63019;51.080;13.642;2022-10-23T00:40:49;11.80;97.50
74488;DHT22;63019;51.080;13.642;2022-10-23T00:41:56;11.80;97.40
74488;DHT22;63019;51.080;13.642;2022-10-23T00:42:57;11.80;97.30
74488;DHT22;63019;51.080;13.642;2022-10-23T00:44:08;11.80;97.30
74488;DHT22;63019;51.080;13.642;2022-10-23T00:45:24;11.80;97.30
74488;DHT22;63019;51.080;13.642;2022-10-23T00:46:27;11.80;97.20
74488;DHT22;63019;51.080;13.642;2022-10-23T00:47:29;11.70;97.30
74488;DHT22;63019;51.080;13.642;2022-10-23T00:48:31;11.70;97.20
74488;DHT22;63019;51.080;13.642;2022-10-23T00:49:33;11.70;97.20
74488;DHT22;63019;51.080;13.642;2022-10-23T00:50:35;11.70;97.10
74488;DHT22;63019;51.080;13.642;2022-10-23T00:51:46;11.70;97.10
74488;DHT22;63019;51.080;13.642;2022-10-23T00:52:51;11.60;96.90
74488;DHT22;63019;51.080;13.642;2022-10-23T00:53:57;11.60;97.20
74488;DHT22;63019;51.080;13.642;2022-10-23T00:55:20;11.50;97.20
74488;DHT22;63019;51.080;13.642;2022-10-23T00:56:24;11.50;97.30
74488;DHT22;63019;51.080;13.642;2022-10-23T00:57:26;11.50;97.30
74488;DHT22;63019;51.080;13.642;2022-10-23T00:58:29;11.50;97.20
74488;DHT22;63019;51.080;13.642;2022-10-23T00:59:31;11.40;97.30
74488;DHT22;63019;51.080;13.642;2022-10-23T01:00:52;11.40;97.40
74488;DHT22;63019;51.080;13.642;2022-10-23T01:01:54;11.40;97.70
74488;DHT22;63019;51.080;13.642;2022-10-23T01:02:56;11.30;97.60
74488;DHT22;63019;51.080;13.642;2022-10-23T01:03:59;11.40;97.70
74488;DHT22;63019;51.080;13.642;2022-10-23T01:05:01;11.30;97.60
74488;DHT22;63019;51.080;13.642;2022-10-23T01:07:27;11.30;97.90
74488;DHT22;63019;51.080;13.642;2022-10-23T01:08:42;11.30;98.00
74488;DHT22;63019;51.080;13.642;2022-10-23T01:10:10;11.30;97.70
74488;DHT22;63019;51.080;13.642;2022-10-23T01:11:26;11.40;97.90
74488;DHT22;63019;51.080;13.642;2022-10-23T01:14:00;11.40;98.00
74488;DHT22;63019;51.080;13.642;2022-10-23T01:15:19;11.40;98.10
74488;DHT22;63019;51.080;13.642;2022-10-23T01:17:53;11.40;98.10
74488;DHT22;63019;51.080;13.642;2022-10-23T01:19:03;11.40;97.80
74488;DHT22;63019;51.080;13.642;2022-10-23T01:21:37;11.40;97.80
74488;DHT22;63019;51.080;13.642;2022-10-23T01:24:17;11.30;97.80
74488;DHT22;63019;51.080;13.642;2022-10-23T01:28:09;11.30;97.90
74488;DHT22;63019;51.080;13.642;2022-10-23T01:29:28;11.20;97.70
74488;DHT22;63019;51.080;13.642;2022-10-23T01:30:33;11.20;98.00
74488;DHT22;63019;51.080;13.642;2022-10-23T01:31:41;11.20;97.80
74488;DHT22;63019;51.080;13.642;2022-10-23T01:32:52;11.20;97.70
74488;DHT22;63019;51.080;13.642;2022-10-23T01:34:00;11.20;98.00
74488;DHT22;63019;51.080;13.642;2022-10-23T01:35:23;11.30;97.70
74488;DHT22;63019;51.080;13.642;2022-10-23T01:36:27;11.20;98.00
74488;DHT22;63019;51.080;13.642;2022-10-23T01:37:42;11.20;97.90
74488;DHT22;63019;51.080;13.642;2022-10-23T01:38:57;11.20;97.70
74488;DHT22;63019;51.080;13.642;2022-10-23T01:40:03;11.20;97.90
74488;DHT22;63019;51.080;13.642;2022-10-23T01:42:36;11.20;97.90
74488;DHT22;63019;51.080;13.642;2022-10-23T01:44:45;11.20;97.70
74488;DHT22;63019;51.080;13.642;2022-10-23T01:45:20;11.10;97.80
74488;DHT22;63019;51.080;13.642;2022-10-23T01:46:25;11.10;97.40
74488;DHT22;63019;51.080;13.642;2022-10-23T01:47:30;11.10;97.40
74488;DHT22;63019;51.080;13.642;2022-10-23T01:48:34;11.10;97.50
74488;DHT22;63019;51.080;13.642;2022-10-23T01:49:37;11.10;97.50
74488;DHT22;63019;51.080;13.642;2022-10-23T01:50:41;11.00;97.50
74488;DHT22;63019;51.080;13.642;2022-10-23T01:51:47;11.00;97.60
74488;DHT22;63019;51.080;13.642;2022-10-23T01:52:50;11.00;97.60
74488;DHT22;63019;51.080;13.642;2022-10-23T01:53:55;10.90;97.40
74488;DHT22;63019;51.080;13.642;2022-10-23T01:55:00;10.90;97.50
74488;DHT22;63019;51.080;13.642;2022-10-23T01:56:02;10.90;97.60
74488;DHT22;63019;51.080;13.642;2022-10-23T01:57:10;10.90;97.80
74488;DHT22;63019;51.080;13.642;2022-10-23T01:58:14;10.90;97.80
74488;DHT22;63019;51.080;13.642;2022-10-23T01:59:21;10.90;97.90
74488;DHT22;63019;51.080;13.642;2022-10-23T02:00:24;10.90;98.20
74488;DHT22;63019;51.080;13.642;2022-10-23T02:01:28;10.90;98.00
74488;DHT22;63019;51.080;13.642;2022-10-23T02:02:32;10.80;98.10
74488;DHT22;63019;51.080;13.642;2022-10-23T02:03:35;10.80;98.00
74488;DHT22;63019;51.080;13.642;2022-10-23T02:05:01;10.80;98.00
74488;DHT22;63019;51.080;13.642;2022-10-23T02:06:04;10.80;98.00
74488;DHT22;63019;51.080;13.642;2022-10-23T02:07:06;10.80;98.00
74488;DHT22;63019;51.080;13.642;2022-10-23T02:08:07;10.80;98.00
74488;DHT22;63019;51.080;13.642;2022-10-23T02:09:09;10.90;98.00
74488;DHT22;63019;51.080;13.642;2022-10-23T02:10:12;10.80;98.00
74488;DHT22;63019;51.080;13.642;2022-10-23T02:11:16;10.80;98.00
74488;DHT22;63019;51.080;13.642;2022-10-23T02:12:34;10.80;98.00
74488;DHT22;63019;51.080;13.642;2022-10-23T02:16:38;10.80;98.00
74488;DHT22;63019;51.080;13.642;2022-10-23T02:18:54;10.90;98.00
74488;DHT22;63019;51.080;13.642;2022-10-23T02:21:24;10.80;97.80
74488;DHT22;63019;51.080;13.642;2022-10-23T02:22:37;10.80;97.90
74488;DHT22;63019;51.080;13.642;2022-10-23T02:24:06;10.80;97.90
74488;DHT22;63019;51.080;13.642;2022-10-23T02:25:14;10.70;98.10
74488;DHT22;63019;51.080;13.642;2022-10-23T02:26:27;10.70;97.90
74488;DHT22;63019;51.080;13.642;2022-10-23T02:27:35;10.70;97.80
74488;DHT22;63019;51.080;13.642;2022-10-23T02:28:42;10.70;97.80
74488;DHT22;63019;51.080;13.642;2022-10-23T02:29:50;10.70;97.80
74488;DHT22;63019;51.080;13.642;2022-10-23T02:30:56;10.70;97.80
74488;DHT22;63019;51.080;13.642;2022-10-23T02:31:59;10.70;97.80
74488;DHT22;63019;51.080;13.642;2022-10-23T02:33:01;10.70;97.80
74488;DHT22;63019;51.080;13.642;2022-10-23T02:34:03;10.70;98.10
74488;DHT22;63019;51.080;13.642;2022-10-23T02:35:06;10.70;98.00
74488;DHT22;63019;51.080;13.642;2022-10-23T02:36:08;10.70;97.90
74488;DHT22;63019;51.080;13.642;2022-10-23T02:37:10;10.70;97.90
74488;DHT22;63019;51.080;13.642;2022-10-23T02:38:32;10.70;97.90
74488;DHT22;63019;51.080;13.642;2022-10-23T02:39:34;10.70;97.70
74488;DHT22;63019;51.080;13.642;2022-10-23T02:40:40;10.70;97.80
74488;DHT22;63019;51.080;13.642;2022-10-23T02:41:52;10.70;97.80
74488;DHT22;63019;51.080;13.642;2022-10-23T02:43:07;10.70;98.00
74488;DHT22;63019;51.080;13.642;2022-10-23T02:44:42;10.70;98.10
74488;DHT22;63019;51.080;13.642;2022-10-23T02:46:24;10.60;98.30
74488;DHT22;63019;51.080;13.642;2022-10-23T02:48:47;10.60;98.30
74488;DHT22;63019;51.080;13.642;2022-10-23T02:51:25;10.60;98.40
74488;DHT22;63019;51.080;13.642;2022-10-23T02:53:48;10.60;98.30
74488;DHT22;63019;51.080;13.642;2022-10-23T02:55:28;10.60;98.30
74488;DHT22;63019;51.080;13.642;2022-10-23T02:58:58;10.50;98.50
74488;DHT22;63019;51.080;13.642;2022-10-23T03:01:12;10.50;98.30
74488;DHT22;63019;51.080;13.642;2022-10-23T03:02:22;10.60;98.30
74488;DHT22;63019;51.080;13.642;2022-10-23T03:03:30;10.50;98.10
74488;DHT22;63019;51.080;13.642;2022-10-23T03:04:34;10.60;98.20
74488;DHT22;63019;51.080;13.642;2022-10-23T03:05:38;10.60;98.20
74488;DHT22;63019;51.080;13.642;2022-10-23T03:06:41;10.60;98.20
74488;DHT22;63019;51.080;13.642;2022-10-23T03:07:44;10.60;98.10
74488;DHT22;63019;51.080;13.642;2022-10-23T03:09:13;10.50;98.00
74488;DHT22;63019;51.080;13.642;2022-10-23T03:10:14;10.50;98.10
74488;DHT22;63019;51.080;13.642;2022-10-23T03:11:16;10.50;98.00
74488;DHT22;63019;51.080;13.642;2022-10-23T03:12:18;10.50;98.00
74488;DHT22;63019;51.080;13.642;2022-10-23T03:13:20;10.50;98.00
74488;DHT22;63019;51.080;13.642;2022-10-23T03:14:21;10.50;97.90
74488;DHT22;63019;51.080;13.642;2022-10-23T03:15:23;10.40;97.90
74488;DHT22;63019;51.080;13.642;2022-10-23T03:16:25;10.40;97.90
74488;DHT22;63019;51.080;13.642;2022-10-23T03:17:27;10.40;97.90
74488;DHT22;63019;51.080;13.642;2022-10-23T03:18:28;10.40;97.80
74488;DHT22;63019;51.080;13.642;2022-10-23T03:19:30;10.40;97.70
74488;DHT22;63019;51.080;13.642;2022-10-23T03:20:32;10.50;97.70
74488;DHT22;63019;51.080;13.642;2022-10-23T03:21:33;10.50;97.70
74488;DHT22;63019;51.080;13.642;2022-10-23T03:22:35;10.50;97.70
74488;DHT22;63019;51.080;13.642;2022-10-23T03:23:37;10.50;97.60
74488;DHT22;63019;51.080;13.642;2022-10-23T03:24:39;10.40;97.60
74488;DHT22;63019;51.080;13.642;2022-10-23T03:25:40;10.40;97.60
74488;DHT22;63019;51.080;13.642;2022-10-23T03:26:42;10.40;97.60
74488;DHT22;63019;51.080;13.642;2022-10-23T03:27:44;10.40;97.60
74488;DHT22;63019;51.080;13.642;2022-10-23T03:28:45;10.40;97.50
74488;DHT22;63019;51.080;13.642;2022-10-23T03:29:47;10.40;97.50
74488;DHT22;63019;51.080;13.642;2022-10-23T03:30:49;10.40;97.60
74488;DHT22;63019;51.080;13.642;2022-10-23T03:31:50;10.40;97.40
74488;DHT22;63019;51.080;13.642;2022-10-23T03:32:52;10.30;97.60
74488;DHT22;63019;51.080;13.642;2022-10-23T03:33:54;10.30;97.70
74488;DHT22;63019;51.080;13.642;2022-10-23T03:34:55;10.30;97.70
74488;DHT22;63019;51.080;13.642;2022-10-23T03:35:57;10.30;97.70
74488;DHT22;63019;51.080;13.642;2022-10-23T03:36:59;10.30;97.80
74488;DHT22;63019;51.080;13.642;2022-10-23T03:38:01;10.20;97.80
74488;DHT22;63019;51.080;13.642;2022-10-23T03:39:03;10.20;97.90
74488;DHT22;63019;51.080;13.642;2022-10-23T03:40:05;10.20;97.90
74488;DHT22;63019;51.080;13.642;2022-10-23T03:41:07;10.20;98.00
74488;DHT22;63019;51.080;13.642;2022-10-23T03:42:08;10.20;98.00
74488;DHT22;63019;51.080;13.642;2022-10-23T03:43:10;10.20;97.90
74488;DHT22;63019;51.080;13.642;2022-10-23T03:44:12;10.20;97.90
74488;DHT22;63019;51.080;13.642;2022-10-23T03:45:13;10.20;97.80
74488;DHT22;63019;51.080;13.642;2022-10-23T03:46:15;10.20;98.10
74488;DHT22;63019;51.080;13.642;2022-10-23T03:47:17;10.20;98.10
74488;DHT22;63019;51.080;13.642;2022-10-23T03:48:18;10.20;98.10
74488;DHT22;63019;51.080;13.642;2022-10-23T03:49:20;10.20;98.20
74488;DHT22;63019;51.080;13.642;2022-10-23T03:50:22;10.20;98.20
74488;DHT22;63019;51.080;13.642;2022-10-23T03:51:24;10.20;98.20
74488;DHT22;63019;51.080;13.642;2022-10-23T03:52:26;10.10;98.00
74488;DHT22;63019;51.080;13.642;2022-10-23T03:53:28;10.10;98.00
74488;DHT22;63019;51.080;13.642;2022-10-23T03:54:30;10.10;98.00
74488;DHT22;63019;51.080;13.642;2022-10-23T03:55:32;10.10;97.90
74488;DHT22;63019;51.080;13.642;2022-10-23T03:56:34;10.10;97.90
74488;DHT22;63019;51.080;13.642;2022-10-23T03:57:35;10.10;98.00
74488;DHT22;63019;51.080;13.642;2022-10-23T03:58:37;10.20;98.00
74488;DHT22;63019;51.080;13.642;2022-10-23T03:59:39;10.20;98.10
74488;DHT22;63019;51.080;13.642;2022-10-23T04:00:40;10.10;98.20
74488;DHT22;63019;51.080;13.642;2022-10-23T04:01:43;10.10;98.00
74488;DHT22;63019;51.080;13.642;2022-10-23T04:02:45;10.10;98.00
74488;DHT22;63019;51.080;13.642;2022-10-23T04:03:48;10.10;97.90
74488;DHT22;63019;51.080;13.642;2022-10-23T04:04:49;10.10;97.90
74488;DHT22;63019;51.080;13.642;2022-10-23T04:05:51;10.10;98.00
74488;DHT22;63019;51.080;13.642;2022-10-23T04:06:53;10.10;98.20
74488;DHT22;63019;51.080;13.642;2022-10-23T04:07:56;10.10;98.30
74488;DHT22;63019;51.080;13.642;2022-10-23T04:08:57;10.10;98.40
74488;DHT22;63019;51.080;13.642;2022-10-23T04:09:59;10.10;98.30
74488;DHT22;63019;51.080;13.642;2022-10-23T04:11:01;10.10;98.30
74488;DHT22;63019;51.080;13.642;2022-10-23T04:12:03;10.10;98.20
74488;DHT22;63019;51.080;13.642;2022-10-23T04:13:04;10.10;98.20
74488;DHT22;63019;51.080;13.642;2022-10-23T04:14:06;10.10;98.20
74488;DHT22;63019;51.080;13.642;2022-10-23T04:15:08;10.10;98.10
74488;DHT22;63019;51.080;13.642;2022-10-23T04:16:10;10.10;98.10
74488;DHT22;63019;51.080;13.642;2022-10-23T04:17:11;10.10;98.10
74488;DHT22;63019;51.080;13.642;2022-10-23T04:18:13;10.10;98.20
74488;DHT22;63019;51.080;13.642;2022-10-23T04:19:15;10.00;98.30
74488;DHT22;63019;51.080;13.642;2022-10-23T04:20:17;10.00;98.20
74488;DHT22;63019;51.080;13.642;2022-10-23T04:21:19;10.00;98.30
74488;DHT22;63019;51.080;13.642;2022-10-23T04:22:21;10.00;98.20
74488;DHT22;63019;51.080;13.642;2022-10-23T04:23:28;10.00;98.20
74488;DHT22;63019;51.080;13.642;2022-10-23T04:24:29;10.00;98.10
74488;DHT22;63019;51.080;13.642;2022-10-23T04:25:31;10.00;98.20
74488;DHT22;63019;51.080;13.642;2022-10-23T04:26:33;10.00;98.20
74488;DHT22;63019;51.080;13.642;2022-10-23T04:27:35;9.90;98.70
74488;DHT22;63019;51.080;13.642;2022-10-23T04:28:36;9.90;98.70
74488;DHT22;63019;51.080;13.642;2022-10-23T04:29:38;9.90;98.70
74488;DHT22;63019;51.080;13.642;2022-10-23T04:30:40;9.90;98.70
74488;DHT22;63019;51.080;13.642;2022-10-23T04:31:42;9.90;98.70
74488;DHT22;63019;51.080;13.642;2022-10-23T04:32:43;9.90;98.80
74488;DHT22;63019;51.080;13.642;2022-10-23T04:33:45;9.90;98.80
74488;DHT22;63019;51.080;13.642;2022-10-23T04:34:47;9.90;98.80
74488;DHT22;63019;51.080;13.642;2022-10-23T04:35:48;9.90;98.80
74488;DHT22;63019;51.080;13.642;2022-10-23T04:36:50;9.90;98.80
74488;DHT22;63019;51.080;13.642;2022-10-23T04:37:52;9.90;98.70
74488;DHT22;63019;51.080;13.642;2022-10-23T04:38:53;9.90;98.70
74488;DHT22;63019;51.080;13.642;2022-10-23T04:39:55;9.90;98.70
74488;DHT22;63019;51.080;13.642;2022-10-23T04:40:57;9.80;98.70
74488;DHT22;63019;51.080;13.642;2022-10-23T04:41:58;9.80;98.60
74488;DHT22;63019;51.080;13.642;2022-10-23T04:43:00;9.80;98.70
74488;DHT22;63019;51.080;13.642;2022-10-23T04:44:02;9.80;98.70
74488;DHT22;63019;51.080;13.642;2022-10-23T04:45:04;9.80;98.80
74488;DHT22;63019;51.080;13.642;2022-10-23T04:46:06;9.80;98.80
74488;DHT22;63019;51.080;13.642;2022-10-23T04:47:08;9.80;98.80
74488;DHT22;63019;51.080;13.642;2022-10-23T04:48:10;9.80;98.80
74488;DHT22;63019;51.080;13.642;2022-10-23T04:49:11;9.80;98.80
74488;DHT22;63019;51.080;13.642;2022-10-23T04:50:13;9.80;98.90
74488;DHT22;63019;51.080;13.642;2022-10-23T04:51:15;9.80;98.90
74488;DHT22;63019;51.080;13.642;2022-10-23T04:52:17;9.80;99.00
74488;DHT22;63019;51.080;13.642;2022-10-23T04:53:19;9.80;99.10
74488;DHT22;63019;51.080;13.642;2022-10-23T04:54:20;9.80;99.10
74488;DHT22;63019;51.080;13.642;2022-10-23T04:55:22;9.80;99.10
74488;DHT22;63019;51.080;13.642;2022-10-23T04:56:25;9.80;99.10
74488;DHT22;63019;51.080;13.642;2022-10-23T04:57:27;9.80;99.10
74488;DHT22;63019;51.080;13.642;2022-10-23T04:58:29;9.80;99.00
74488;DHT22;63019;51.080;13.642;2022-10-23T04:59:31;9.80;98.90
74488;DHT22;63019;51.080;13.642;2022-10-23T05:00:32;9.80;98.80
74488;DHT22;63019;51.080;13.642;2022-10-23T05:01:34;9.80;98.90
74488;DHT22;63019;51.080;13.642;2022-10-23T05:02:36;9.80;98.90
74488;DHT22;63019;51.080;13.642;2022-10-23T05:03:38;9.80;98.90
74488;DHT22;63019;51.080;13.642;2022-10-23T05:04:39;9.80;98.90
74488;DHT22;63019;51.080;13.642;2022-10-23T05:05:41;9.70;98.90
74488;DHT22;63019;51.080;13.642;2022-10-23T05:06:43;9.70;98.90
74488;DHT22;63019;51.080;13.642;2022-10-23T05:07:45;9.70;99.00
74488;DHT22;63019;51.080;13.642;2022-10-23T05:08:47;9.70;99.00
74488;DHT22;63019;51.080;13.642;2022-10-23T05:09:48;9.70;99.00
74488;DHT22;63019;51.080;13.642;2022-10-23T05:10:50;9.70;99.00
74488;DHT22;63019;51.080;13.642;2022-10-23T05:11:52;9.70;99.00
74488;DHT22;63019;51.080;13.642;2022-10-23T05:12:54;9.70;99.00
74488;DHT22;63019;51.080;13.642;2022-10-23T05:13:55;9.70;99.00
74488;DHT22;63019;51.080;13.642;2022-10-23T05:14:57;9.70;98.90
74488;DHT22;63019;51.080;13.642;2022-10-23T05:15:59;9.70;98.80
74488;DHT22;63019;51.080;13.642;2022-10-23T05:17:16;9.70;98.80
74488;DHT22;63019;51.080;13.642;2022-10-23T05:18:41;9.70;98.80
74488;DHT22;63019;51.080;13.642;2022-10-23T05:19:50;9.70;98.70
74488;DHT22;63019;51.080;13.642;2022-10-23T05:20:58;9.70;98.80
74488;DHT22;63019;51.080;13.642;2022-10-23T05:22:01;9.70;98.80
74488;DHT22;63019;51.080;13.642;2022-10-23T05:23:07;9.70;98.70
74488;DHT22;63019;51.080;13.642;2022-10-23T05:24:11;9.60;98.80
74488;DHT22;63019;51.080;13.642;2022-10-23T05:25:13;9.60;98.90
74488;DHT22;63019;51.080;13.642;2022-10-23T05:26:14;9.60;99.00
74488;DHT22;63019;51.080;13.642;2022-10-23T05:27:16;9.60;99.20
74488;DHT22;63019;51.080;13.642;2022-10-23T05:28:18;9.60;99.20
74488;DHT22;63019;51.080;13.642;2022-10-23T05:29:19;9.60;99.20
74488;DHT22;63019;51.080;13.642;2022-10-23T05:30:21;9.60;99.20
74488;DHT22;63019;51.080;13.642;2022-10-23T05:31:23;9.60;99.20
74488;DHT22;63019;51.080;13.642;2022-10-23T05:32:28;9.60;99.10
74488;DHT22;63019;51.080;13.642;2022-10-23T05:33:31;9.60;99.00
74488;DHT22;63019;51.080;13.642;2022-10-23T05:34:35;9.70;99.20
74488;DHT22;63019;51.080;13.642;2022-10-23T05:35:40;9.70;99.10
74488;DHT22;63019;51.080;13.642;2022-10-23T05:36:43;9.70;99.10
74488;DHT22;63019;51.080;13.642;2022-10-23T05:37:46;9.70;99.10
74488;DHT22;63019;51.080;13.642;2022-10-23T05:38:50;9.70;99.10
74488;DHT22;63019;51.080;13.642;2022-10-23T05:39:51;9.60;99.30
74488;DHT22;63019;51.080;13.642;2022-10-23T05:40:54;9.60;99.40
74488;DHT22;63019;51.080;13.642;2022-10-23T05:41:55;9.60;99.60
74488;DHT22;63019;51.080;13.642;2022-10-23T05:42:57;9.60;99.50
74488;DHT22;63019;51.080;13.642;2022-10-23T05:43:59;9.60;99.50
74488;DHT22;63019;51.080;13.642;2022-10-23T05:45:00;9.60;99.50
74488;DHT22;63019;51.080;13.642;2022-10-23T05:46:05;9.60;99.40
74488;DHT22;63019;51.080;13.642;2022-10-23T05:47:07;9.60;99.50
74488;DHT22;63019;51.080;13.642;2022-10-23T05:48:09;9.60;99.60
74488;DHT22;63019;51.080;13.642;2022-10-23T05:49:31;9.60;99.50
74488;DHT22;63019;51.080;13.642;2022-10-23T05:50:35;9.60;99.60
74488;DHT22;63019;51.080;13.642;2022-10-23T05:51:40;9.70;99.60
74488;DHT22;63019;51.080;13.642;2022-10-23T05:52:45;9.60;99.50
74488;DHT22;63019;51.080;13.642;2022-10-23T05:53:48;9.70;99.50
74488;DHT22;63019;51.080;13.642;2022-10-23T05:54:50;9.60;99.50
74488;DHT22;63019;51.080;13.642;2022-10-23T05:55:52;9.60;99.70
74488;DHT22;63019;51.080;13.642;2022-10-23T05:56:54;9.60;99.70
74488;DHT22;63019;51.080;13.642;2022-10-23T05:57:56;9.60;99.80
74488;DHT22;63019;51.080;13.642;2022-10-23T05:58:58;9.60;99.80
74488;DHT22;63019;51.080;13.642;2022-10-23T06:00:00;9.60;99.70
74488;DHT22;63019;51.080;13.642;2022-10-23T06:01:06;9.60;99.80
74488;DHT22;63019;51.080;13.642;2022-10-23T06:02:09;9.70;99.90
74488;DHT22;63019;51.080;13.642;2022-10-23T06:03:10;9.60;99.80
74488;DHT22;63019;51.080;13.642;2022-10-23T06:04:12;9.60;99.90
74488;DHT22;63019;51.080;13.642;2022-10-23T06:05:14;9.60;99.90
74488;DHT22;63019;51.080;13.642;2022-10-23T06:06:16;9.60;99.90
74488;DHT22;63019;51.080;13.642;2022-10-23T06:07:23;9.60;99.90
74488;DHT22;63019;51.080;13.642;2022-10-23T06:08:25;9.60;99.90
74488;DHT22;63019;51.080;13.642;2022-10-23T06:09:26;9.60;99.90
74488;DHT22;63019;51.080;13.642;2022-10-23T06:10:30;9.60;99.90
74488;DHT22;63019;51.080;13.642;2022-10-23T06:11:32;9.60;99.90
74488;DHT22;63019;51.080;13.642;2022-10-23T06:12:34;9.60;99.90
74488;DHT22;63019;51.080;13.642;2022-10-23T06:13:36;9.60;99.90
74488;DHT22;63019;51.080;13.642;2022-10-23T06:14:38;9.60;99.90
74488;DHT22;63019;51.080;13.642;2022-10-23T06:15:39;9.70;99.90
74488;DHT22;63019;51.080;13.642;2022-10-23T06:16:41;9.60;99.90
74488;DHT22;63019;51.080;13.642;2022-10-23T06:17:43;9.60;99.90
74488;DHT22;63019;51.080;13.642;2022-10-23T06:18:45;9.60;99.90
74488;DHT22;63019;51.080;13.642;2022-10-23T06:19:47;9.70;99.90
74488;DHT22;63019;51.080;13.642;2022-10-23T06:20:49;9.70;99.90
74488;DHT22;63019;51.080;13.642;2022-10-23T06:21:51;9.70;99.90
74488;DHT22;63019;51.080;13.642;2022-10-23T06:22:52;9.70;99.90
74488;DHT22;63019;51.080;13.642;2022-10-23T06:23:55;9.70;99.90
74488;DHT22;63019;51.080;13.642;2022-10-23T06:24:57;9.70;99.90
74488;DHT22;63019;51.080;13.642;2022-10-23T06:25:58;9.70;99.90
74488;DHT22;63019;51.080;13.642;2022-10-23T06:27:00;9.70;99.90
74488;DHT22;63019;51.080;13.642;2022-10-23T06:28:02;9.70;99.90
74488;DHT22;63019;51.080;13.642;2022-10-23T06:29:03;9.70;99.90
74488;DHT22;63019;51.080;13.642;2022-10-23T06:30:06;9.70;99.90
74488;DHT22;63019;51.080;13.642;2022-10-23T06:31:10;9.80;99.90
74488;DHT22;63019;51.080;13.642;2022-10-23T06:32:12;9.80;99.90
74488;DHT22;63019;51.080;13.642;2022-10-23T06:33:14;9.80;99.90
74488;DHT22;63019;51.080;13.642;2022-10-23T06:34:15;9.80;99.90
74488;DHT22;63019;51.080;13.642;2022-10-23T06:35:17;9.80;99.90
74488;DHT22;63019;51.080;13.642;2022-10-23T06:36:19;9.80;99.90
74488;DHT22;63019;51.080;13.642;2022-10-23T06:37:21;9.80;99.90
74488;DHT22;63019;51.080;13.642;2022-10-23T06:38:23;9.80;99.90
74488;DHT22;63019;51.080;13.642;2022-10-23T06:39:24;9.80;99.90
74488;DHT22;63019;51.080;13.642;2022-10-23T06:40:31;9.80;99.90
74488;DHT22;63019;51.080;13.642;2022-10-23T06:41:33;9.80;99.90
74488;DHT22;63019;51.080;13.642;2022-10-23T06:42:35;9.80;99.90
74488;DHT22;63019;51.080;13.642;2022-10-23T06:43:36;9.80;99.90
74488;DHT22;63019;51.080;13.642;2022-10-23T06:44:38;9.80;99.90
74488;DHT22;63019;51.080;13.642;2022-10-23T06:45:40;9.80;99.90
74488;DHT22;63019;51.080;13.642;2022-10-23T06:46:42;9.80;99.90
74488;DHT22;63019;51.080;13.642;2022-10-23T06:47:51;9.80;99.90
74488;DHT22;63019;51.080;13.642;2022-10-23T06:48:53;9.90;99.90
74488;DHT22;63019;51.080;13.642;2022-10-23T06:49:54;9.90;99.90
74488;DHT22;63019;51.080;13.642;2022-10-23T06:50:56;9.90;99.90
74488;DHT22;63019;51.080;13.642;2022-10-23T06:51:58;9.90;99.90
74488;DHT22;63019;51.080;13.642;2022-10-23T06:53:00;10.00;99.90
74488;DHT22;63019;51.080;13.642;2022-10-23T06:54:01;9.90;99.90
74488;DHT22;63019;51.080;13.642;2022-10-23T06:55:03;10.00;99.90
74488;DHT22;63019;51.080;13.642;2022-10-23T06:56:06;10.00;99.90
74488;DHT22;63019;51.080;13.642;2022-10-23T06:57:08;10.00;99.90
74488;DHT22;63019;51.080;13.642;2022-10-23T06:58:10;10.00;99.90
74488;DHT22;63019;51.080;13.642;2022-10-23T06:59:11;10.00;99.90
74488;DHT22;63019;51.080;13.642;2022-10-23T07:00:14;10.10;99.90
74488;DHT22;63019;51.080;13.642;2022-10-23T07:01:16;10.10;99.90
74488;DHT22;63019;51.080;13.642;2022-10-23T07:02:18;10.10;99.90
74488;DHT22;63019;51.080;13.642;2022-10-23T07:03:20;10.10;99.90
74488;DHT22;63019;51.080;13.642;2022-10-23T07:04:22;10.10;99.90
74488;DHT22;63019;51.080;13.642;2022-10-23T07:05:24;10.10;99.90
74488;DHT22;63019;51.080;13.642;2022-10-23T07:06:25;10.20;99.90